sensor_id;sensor_type;location;lat;lon;timestamp;pressure;altitude;pressure_sealevel;temperature
45701;BMP280;36277;32.852;-116.998;2022-12-18T00:01:20;99941.09;;;23.81
45701;BMP280;36277;32.852;-116.998;2022-12-18T00:03:47;99946.31;;;23.76
45701;BMP280;36277;32.852;-116.998;2022-12-18T00:06:13;99947.19;;;23.77
45701;BMP280;36277;32.852;-116.998;2022-12-18T00:08:41;99959.03;;;23.77
45701;BMP280;36277;32.852;-116.998;2022-12-18T00:11:13;99947.38;;;23.75
45701;BMP280;36277;32.852;-116.998;2022-12-18T00:13:40;99953.91;;;23.74
45701;BMP280;36277;32.852;-116.998;2022-12-18T00:16:09;99950.13;;;23.75
45701;BMP280;36277;32.852;-116.998;2022-12-18T00:18:35;99953.25;;;23.72
45701;BMP280;36277;32.852;-116.998;2022-12-18T00:21:04;99955.84;;;23.74
45701;BMP280;36277;32.852;-116.998;2022-12-18T00:23:31;99953.25;;;23.72
45701;BMP280;36277;32.852;-116.998;2022-12-18T00:26:02;99952.22;;;23.73
45701;BMP280;36277;32.852;-116.998;2022-12-18T00:28:29;99962.56;;;23.71
45701;BMP280;36277;32.852;-116.998;2022-12-18T00:31:02;99954.97;;;23.73
45701;BMP280;36277;32.852;-116.998;2022-12-18T00:33:28;99966.19;;;23.72
45701;BMP280;36277;32.852;-116.998;2022-12-18T00:35:54;99962.56;;;23.71
45701;BMP280;36277;32.852;-116.998;2022-12-18T00:38:20;99959.66;;;23.73
45701;BMP280;36277;32.852;-116.998;2022-12-18T00:40:47;99958.78;;;23.72
45701;BMP280;36277;32.852;-116.998;2022-12-18T00:43:13;99958.59;;;23.74
45701;BMP280;36277;32.852;-116.998;2022-12-18T00:45:39;99966.19;;;23.72
45701;BMP280;36277;32.852;-116.998;2022-12-18T00:48:06;99968.75;;;23.73
45701;BMP280;36277;32.852;-116.998;2022-12-18T00:50:32;99961.53;;;23.72
45701;BMP280;36277;32.852;-116.998;2022-12-18T00:52:59;99963.06;;;23.75
45701;BMP280;36277;32.852;-116.998;2022-12-18T00:55:25;99959.44;;;23.74
45701;BMP280;36277;32.852;-116.998;2022-12-18T00:57:52;99963.91;;;23.75
45701;BMP280;36277;32.852;-116.998;2022-12-18T01:00:18;99971.31;;;23.75
45701;BMP280;36277;32.852;-116.998;2022-12-18T01:02:44;99978.06;;;23.72
45701;BMP280;36277;32.852;-116.998;2022-12-18T01:05:12;99978.94;;;23.73
45701;BMP280;36277;32.852;-116.998;2022-12-18T01:07:39;99976.78;;;23.68
45701;BMP280;36277;32.852;-116.998;2022-12-18T01:10:06;99981.03;;;23.71
45701;BMP280;36277;32.852;-116.998;2022-12-18T01:12:33;99976.78;;;23.68
45701;BMP280;36277;32.852;-116.998;2022-12-18T01:15:00;99977.59;;;23.69
45701;BMP280;36277;32.852;-116.998;2022-12-18T01:17:26;99978.66;;;23.68
45701;BMP280;36277;32.852;-116.998;2022-12-18T01:19:52;99981.41;;;23.68
45701;BMP280;36277;32.852;-116.998;2022-12-18T01:22:18;99977.16;;;23.65
45701;BMP280;36277;32.852;-116.998;2022-12-18T01:24:45;99982.00;;;23.63
45701;BMP280;36277;32.852;-116.998;2022-12-18T01:27:11;99977.53;;;23.62
45701;BMP280;36277;32.852;-116.998;2022-12-18T01:29:37;99981.34;;;23.61
45701;BMP280;36277;32.852;-116.998;2022-12-18T01:32:03;99984.28;;;23.60
45701;BMP280;36277;32.852;-116.998;2022-12-18T01:34:30;99987.25;;;23.58
45701;BMP280;36277;32.852;-116.998;2022-12-18T01:36:56;99992.75;;;23.58
45701;BMP280;36277;32.852;-116.998;2022-12-18T01:39:23;99997.59;;;23.56
45701;BMP280;36277;32.852;-116.998;2022-12-18T01:41:49;100006.91;;;23.55
45701;BMP280;36277;32.852;-116.998;2022-12-18T01:49:54;100015.56;;;23.52
45701;BMP280;36277;32.852;-116.998;2022-12-18T01:52:22;100012.63;;;23.54
45701;BMP280;36277;32.852;-116.998;2022-12-18T01:54:50;100012.63;;;23.54
45701;BMP280;36277;32.852;-116.998;2022-12-18T01:57:18;100010.03;;;23.52
45701;BMP280;36277;32.852;-116.998;2022-12-18T01:59:49;100020.88;;;23.54
45701;BMP280;36277;32.852;-116.998;2022-12-18T02:02:20;100018.31;;;23.52
45701;BMP280;36277;32.852;-116.998;2022-12-18T02:04:47;100024.69;;;23.53
45701;BMP280;36277;32.852;-116.998;2022-12-18T02:08:15;100023.81;;;23.52
45701;BMP280;36277;32.852;-116.998;2022-12-18T02:11:04;100032.47;;;23.49
45701;BMP280;36277;32.852;-116.998;2022-12-18T02:13:29;100036.25;;;23.48
45701;BMP280;36277;32.852;-116.998;2022-12-18T02:18:59;100030.75;;;23.48
45701;BMP280;36277;32.852;-116.998;2022-12-18T02:26:55;100031.53;;;23.42
45701;BMP280;36277;32.852;-116.998;2022-12-18T02:29:26;100034.31;;;23.42
45701;BMP280;36277;32.852;-116.998;2022-12-18T02:32:08;100024.50;;;23.40
45701;BMP280;36277;32.852;-116.998;2022-12-18T02:34:39;100031.06;;;23.39
45701;BMP280;36277;32.852;-116.998;2022-12-18T02:37:10;100025.53;;;23.39
45701;BMP280;36277;32.852;-116.998;2022-12-18T02:39:43;100020.25;;;23.37
45701;BMP280;36277;32.852;-116.998;2022-12-18T02:42:10;100020.41;;;23.36
45701;BMP280;36277;32.852;-116.998;2022-12-18T02:44:49;100016.63;;;23.37
45701;BMP280;36277;32.852;-116.998;2022-12-18T02:47:19;100005.97;;;23.34
45701;BMP280;36277;32.852;-116.998;2022-12-18T02:52:50;100007.22;;;23.31
45701;BMP280;36277;32.852;-116.998;2022-12-18T02:55:41;100007.81;;;23.27
45701;BMP280;36277;32.852;-116.998;2022-12-18T03:03:58;100009.78;;;23.33
45701;BMP280;36277;32.852;-116.998;2022-12-18T03:06:30;100013.31;;;23.41
45701;BMP280;36277;32.852;-116.998;2022-12-18T03:09:01;100013.19;;;23.49
45701;BMP280;36277;32.852;-116.998;2022-12-18T03:11:33;100004.06;;;23.63
45701;BMP280;36277;32.852;-116.998;2022-12-18T03:14:20;99999.72;;;23.75
45701;BMP280;36277;32.852;-116.998;2022-12-18T03:16:49;100004.56;;;23.88
45701;BMP280;36277;32.852;-116.998;2022-12-18T03:19:21;100005.78;;;24.00
45701;BMP280;36277;32.852;-116.998;2022-12-18T03:21:53;100003.34;;;24.11
45701;BMP280;36277;32.852;-116.998;2022-12-18T03:24:21;99998.38;;;24.21
45701;BMP280;36277;32.852;-116.998;2022-12-18T03:26:54;99991.25;;;24.33
45701;BMP280;36277;32.852;-116.998;2022-12-18T03:29:35;100001.53;;;24.45
45701;BMP280;36277;32.852;-116.998;2022-12-18T03:32:09;100004.84;;;24.55
45701;BMP280;36277;32.852;-116.998;2022-12-18T03:34:40;100007.28;;;24.65
45701;BMP280;36277;32.852;-116.998;2022-12-18T03:37:08;100008.19;;;24.72
45701;BMP280;36277;32.852;-116.998;2022-12-18T03:39:36;100006.03;;;24.74
45701;BMP280;36277;32.852;-116.998;2022-12-18T03:42:15;100001.56;;;24.73
45701;BMP280;36277;32.852;-116.998;2022-12-18T03:50:12;100002.75;;;24.57
45701;BMP280;36277;32.852;-116.998;2022-12-18T03:53:18;99997.63;;;24.54
45701;BMP280;36277;32.852;-116.998;2022-12-18T03:55:40;100003.06;;;24.48
45701;BMP280;36277;32.852;-116.998;2022-12-18T03:58:07;99997.94;;;24.45
45701;BMP280;36277;32.852;-116.998;2022-12-18T04:00:35;100000.06;;;24.43
45701;BMP280;36277;32.852;-116.998;2022-12-18T04:03:02;99995.75;;;24.40
45701;BMP280;36277;32.852;-116.998;2022-12-18T04:05:30;99999.78;;;24.38
45701;BMP280;36277;32.852;-116.998;2022-12-18T04:08:00;99997.41;;;24.35
45701;BMP280;36277;32.852;-116.998;2022-12-18T04:10:27;100000.56;;;24.32
45701;BMP280;36277;32.852;-116.998;2022-12-18T04:12:56;100003.34;;;24.32
45701;BMP280;36277;32.852;-116.998;2022-12-18T04:15:23;100006.47;;;24.29
45701;BMP280;36277;32.852;-116.998;2022-12-18T04:17:49;100003.72;;;24.29
45701;BMP280;36277;32.852;-116.998;2022-12-18T04:20:16;100003.72;;;24.29
45701;BMP280;36277;32.852;-116.998;2022-12-18T04:22:43;99998.59;;;24.26
45701;BMP280;36277;32.852;-116.998;2022-12-18T04:25:12;99993.09;;;24.26
45701;BMP280;36277;32.852;-116.998;2022-12-18T04:27:38;99989.66;;;24.24
45701;BMP280;36277;32.852;-116.998;2022-12-18T04:30:05;99989.66;;;24.24
45701;BMP280;36277;32.852;-116.998;2022-12-18T04:32:33;99984.16;;;24.24
45701;BMP280;36277;32.852;-116.998;2022-12-18T04:35:00;99995.78;;;24.19
45701;BMP280;36277;32.852;-116.998;2022-12-18T04:37:26;99995.13;;;24.17
45701;BMP280;36277;32.852;-116.998;2022-12-18T04:39:52;99996.38;;;24.15
45701;BMP280;36277;32.852;-116.998;2022-12-18T04:42:18;100000.38;;;24.13
45701;BMP280;36277;32.852;-116.998;2022-12-18T04:44:45;100004.38;;;24.10
45701;BMP280;36277;32.852;-116.998;2022-12-18T04:47:11;100010.28;;;24.07
45701;BMP280;36277;32.852;-116.998;2022-12-18T04:49:37;100004.56;;;24.09
45701;BMP280;36277;32.852;-116.998;2022-12-18T04:52:03;100001.81;;;24.09
45701;BMP280;36277;32.852;-116.998;2022-12-18T04:54:30;100005.84;;;24.06
45701;BMP280;36277;32.852;-116.998;2022-12-18T04:56:56;100005.16;;;24.04
45701;BMP280;36277;32.852;-116.998;2022-12-18T04:59:22;100003.47;;;24.03
45701;BMP280;36277;32.852;-116.998;2022-12-18T05:01:48;100000.72;;;24.03
45701;BMP280;36277;32.852;-116.998;2022-12-18T05:04:14;99994.34;;;24.03
45701;BMP280;36277;32.852;-116.998;2022-12-18T05:06:41;100000.03;;;24.01
45701;BMP280;36277;32.852;-116.998;2022-12-18T05:09:07;99990.94;;;24.01
45701;BMP280;36277;32.852;-116.998;2022-12-18T05:11:36;99992.81;;;24.00
45701;BMP280;36277;32.852;-116.998;2022-12-18T05:14:03;99991.50;;;23.96
45701;BMP280;36277;32.852;-116.998;2022-12-18T05:16:29;99992.38;;;23.97
45701;BMP280;36277;32.852;-116.998;2022-12-18T05:18:55;99992.81;;;24.00
45701;BMP280;36277;32.852;-116.998;2022-12-18T05:21:22;99985.22;;;24.02
45701;BMP280;36277;32.852;-116.998;2022-12-18T05:23:48;99994.34;;;24.03
45701;BMP280;36277;32.852;-116.998;2022-12-18T05:26:16;99996.06;;;24.04
45701;BMP280;36277;32.852;-116.998;2022-12-18T05:28:43;99994.53;;;24.01
45701;BMP280;36277;32.852;-116.998;2022-12-18T05:31:09;99998.81;;;24.04
45701;BMP280;36277;32.852;-116.998;2022-12-18T05:33:36;99997.94;;;24.03
45701;BMP280;36277;32.852;-116.998;2022-12-18T05:36:05;100004.78;;;24.07
45701;BMP280;36277;32.852;-116.998;2022-12-18T05:38:34;100006.50;;;24.08
45701;BMP280;36277;32.852;-116.998;2022-12-18T05:41:00;100012.22;;;24.07
45701;BMP280;36277;32.852;-116.998;2022-12-18T05:43:27;100015.81;;;24.07
45701;BMP280;36277;32.852;-116.998;2022-12-18T05:45:54;100019.63;;;24.06
45701;BMP280;36277;32.852;-116.998;2022-12-18T05:48:21;100015.16;;;24.05
45701;BMP280;36277;32.852;-116.998;2022-12-18T05:50:49;100016.69;;;24.08
45701;BMP280;36277;32.852;-116.998;2022-12-18T05:53:18;100012.22;;;24.07
45701;BMP280;36277;32.852;-116.998;2022-12-18T05:55:45;100016.84;;;24.06
45701;BMP280;36277;32.852;-116.998;2022-12-18T05:58:13;100019.44;;;24.08
45701;BMP280;36277;32.852;-116.998;2022-12-18T06:00:43;100018.56;;;24.07
45701;BMP280;36277;32.852;-116.998;2022-12-18T06:03:10;100018.13;;;24.04
45701;BMP280;36277;32.852;-116.998;2022-12-18T06:05:40;100030.19;;;24.03
45701;BMP280;36277;32.852;-116.998;2022-12-18T06:08:07;100021.44;;;23.99
45701;BMP280;36277;32.852;-116.998;2022-12-18T06:10:33;100030.97;;;23.97
45701;BMP280;36277;32.852;-116.998;2022-12-18T06:12:59;100028.41;;;23.95
45701;BMP280;36277;32.852;-116.998;2022-12-18T06:15:26;100025.00;;;23.93
45701;BMP280;36277;32.852;-116.998;2022-12-18T06:17:52;100028.59;;;23.94
45701;BMP280;36277;32.852;-116.998;2022-12-18T06:20:18;100031.56;;;23.92
45701;BMP280;36277;32.852;-116.998;2022-12-18T06:22:45;100035.38;;;23.91
45701;BMP280;36277;32.852;-116.998;2022-12-18T06:25:11;100022.63;;;23.90
45701;BMP280;36277;32.852;-116.998;2022-12-18T06:27:37;100030.91;;;23.90
45701;BMP280;36277;32.852;-116.998;2022-12-18T06:30:13;100035.38;;;23.91
45701;BMP280;36277;32.852;-116.998;2022-12-18T06:32:39;100024.91;;;23.87
45701;BMP280;36277;32.852;-116.998;2022-12-18T06:35:06;100024.91;;;23.87
45701;BMP280;36277;32.852;-116.998;2022-12-18T06:37:32;100022.34;;;23.85
45701;BMP280;36277;32.852;-116.998;2022-12-18T06:40:02;100028.91;;;23.84
45701;BMP280;36277;32.852;-116.998;2022-12-18T06:42:28;100031.66;;;23.84
45701;BMP280;36277;32.852;-116.998;2022-12-18T06:44:55;100028.25;;;23.82
45701;BMP280;36277;32.852;-116.998;2022-12-18T06:47:21;100032.06;;;23.81
45701;BMP280;36277;32.852;-116.998;2022-12-18T06:49:47;100030.16;;;23.82
45701;BMP280;36277;32.852;-116.998;2022-12-18T06:52:16;100033.97;;;23.81
45701;BMP280;36277;32.852;-116.998;2022-12-18T06:54:43;100030.03;;;23.75
45701;BMP280;36277;32.852;-116.998;2022-12-18T06:57:09;100031.94;;;23.75
45701;BMP280;36277;32.852;-116.998;2022-12-18T06:59:35;100025.56;;;23.74
45701;BMP280;36277;32.852;-116.998;2022-12-18T07:02:01;100030.25;;;23.74
45701;BMP280;36277;32.852;-116.998;2022-12-18T07:04:31;100029.38;;;23.73
45701;BMP280;36277;32.852;-116.998;2022-12-18T07:06:57;100033.38;;;23.71
45701;BMP280;36277;32.852;-116.998;2022-12-18T07:09:24;100024.47;;;23.69
45701;BMP280;36277;32.852;-116.998;2022-12-18T07:11:50;100015.34;;;23.68
45701;BMP280;36277;32.852;-116.998;2022-12-18T07:14:17;100021.91;;;23.67
45701;BMP280;36277;32.852;-116.998;2022-12-18T07:16:43;100021.91;;;23.67
45701;BMP280;36277;32.852;-116.998;2022-12-18T07:19:09;100023.13;;;23.65
45701;BMP280;36277;32.852;-116.998;2022-12-18T07:21:35;100019.53;;;23.64
45701;BMP280;36277;32.852;-116.998;2022-12-18T07:24:02;100017.16;;;23.61
45701;BMP280;36277;32.852;-116.998;2022-12-18T07:26:28;100015.44;;;23.60
45701;BMP280;36277;32.852;-116.998;2022-12-18T07:28:55;100012.25;;;23.57
45701;BMP280;36277;32.852;-116.998;2022-12-18T07:31:23;100015.56;;;23.52
45701;BMP280;36277;32.852;-116.998;2022-12-18T07:33:51;100009.75;;;23.47
45701;BMP280;36277;32.852;-116.998;2022-12-18T07:36:18;100004.47;;;23.46
45701;BMP280;36277;32.852;-116.998;2022-12-18T07:38:47;100003.59;;;23.45
45701;BMP280;36277;32.852;-116.998;2022-12-18T07:41:14;100015.03;;;23.42
45701;BMP280;36277;32.852;-116.998;2022-12-18T07:43:43;100010.56;;;23.41
45701;BMP280;36277;32.852;-116.998;2022-12-18T07:46:10;100010.28;;;23.36
45701;BMP280;36277;32.852;-116.998;2022-12-18T07:48:37;100005.16;;;23.33
45701;BMP280;36277;32.852;-116.998;2022-12-18T07:51:05;100011.69;;;23.32
45701;BMP280;36277;32.852;-116.998;2022-12-18T07:53:33;100005.91;;;23.27
45701;BMP280;36277;32.852;-116.998;2022-12-18T07:56:01;99994.81;;;23.21
45701;BMP280;36277;32.852;-116.998;2022-12-18T07:58:29;99999.06;;;23.23
45701;BMP280;36277;32.852;-116.998;2022-12-18T08:01:11;99989.31;;;23.21
45701;BMP280;36277;32.852;-116.998;2022-12-18T08:03:40;99986.09;;;23.17
45701;BMP280;36277;32.852;-116.998;2022-12-18T08:06:08;99977.34;;;23.14
45701;BMP280;36277;32.852;-116.998;2022-12-18T08:08:38;99976.00;;;23.10
45701;BMP280;36277;32.852;-116.998;2022-12-18T08:11:05;99972.59;;;23.08
45701;BMP280;36277;32.852;-116.998;2022-12-18T08:13:32;99972.97;;;23.05
45701;BMP280;36277;32.852;-116.998;2022-12-18T08:16:00;99964.03;;;23.03
45701;BMP280;36277;32.852;-116.998;2022-12-18T08:18:27;99957.19;;;22.99
45701;BMP280;36277;32.852;-116.998;2022-12-18T08:20:54;99957.38;;;22.98
45701;BMP280;36277;32.852;-116.998;2022-12-18T08:23:21;99965.63;;;22.98
45701;BMP280;36277;32.852;-116.998;2022-12-18T08:25:48;99942.94;;;22.96
45701;BMP280;36277;32.852;-116.998;2022-12-18T08:28:17;99943.63;;;22.98
45701;BMP280;36277;32.852;-116.998;2022-12-18T08:30:43;99946.09;;;22.93
45701;BMP280;36277;32.852;-116.998;2022-12-18T08:33:10;99952.44;;;22.93
45701;BMP280;36277;32.852;-116.998;2022-12-18T08:35:36;99941.66;;;22.92
45701;BMP280;36277;32.852;-116.998;2022-12-18T08:38:03;99935.47;;;22.90
45701;BMP280;36277;32.852;-116.998;2022-12-18T08:40:29;99936.53;;;22.89
45701;BMP280;36277;32.852;-116.998;2022-12-18T08:42:55;99932.06;;;22.88
45701;BMP280;36277;32.852;-116.998;2022-12-18T08:45:40;99929.03;;;22.83
45701;BMP280;36277;32.852;-116.998;2022-12-18T08:48:06;99920.75;;;22.83
45701;BMP280;36277;32.852;-116.998;2022-12-18T08:50:32;99918.00;;;22.83
45701;BMP280;36277;32.852;-116.998;2022-12-18T08:52:58;99912.69;;;22.81
45701;BMP280;36277;32.852;-116.998;2022-12-18T08:55:25;99910.13;;;22.80
45701;BMP280;36277;32.852;-116.998;2022-12-18T08:57:51;99922.19;;;22.79
45701;BMP280;36277;32.852;-116.998;2022-12-18T09:00:17;99921.53;;;22.77
45701;BMP280;36277;32.852;-116.998;2022-12-18T09:02:44;99925.31;;;22.76
45701;BMP280;36277;32.852;-116.998;2022-12-18T09:05:10;99928.06;;;22.76
45701;BMP280;36277;32.852;-116.998;2022-12-18T09:07:36;99924.66;;;22.74
45701;BMP280;36277;32.852;-116.998;2022-12-18T09:10:03;99925.03;;;22.71
45701;BMP280;36277;32.852;-116.998;2022-12-18T09:12:39;99919.53;;;22.71
45701;BMP280;36277;32.852;-116.998;2022-12-18T09:15:05;99935.38;;;22.69
45701;BMP280;36277;32.852;-116.998;2022-12-18T09:17:32;99927.50;;;22.66
45701;BMP280;36277;32.852;-116.998;2022-12-18T09:19:58;99934.06;;;22.65
45701;BMP280;36277;32.852;-116.998;2022-12-18T09:22:24;99938.69;;;22.64
45701;BMP280;36277;32.852;-116.998;2022-12-18T09:24:50;99932.53;;;22.62
45701;BMP280;36277;32.852;-116.998;2022-12-18T09:27:17;99928.06;;;22.61
45701;BMP280;36277;32.852;-116.998;2022-12-18T09:29:43;99932.06;;;22.59
45701;BMP280;36277;32.852;-116.998;2022-12-18T09:32:09;99939.63;;;22.57
45701;BMP280;36277;32.852;-116.998;2022-12-18T09:34:35;99940.88;;;22.54
45701;BMP280;36277;32.852;-116.998;2022-12-18T09:37:02;99938.31;;;22.53
45701;BMP280;36277;32.852;-116.998;2022-12-18T09:39:28;99944.00;;;22.51
45701;BMP280;36277;32.852;-116.998;2022-12-18T09:41:57;99946.91;;;22.50
45701;BMP280;36277;32.852;-116.998;2022-12-18T09:44:37;99941.44;;;22.50
45701;BMP280;36277;32.852;-116.998;2022-12-18T09:47:25;99954.50;;;22.48
45701;BMP280;36277;32.852;-116.998;2022-12-18T09:50:05;99961.41;;;22.44
45701;BMP280;36277;32.852;-116.998;2022-12-18T09:52:46;99966.91;;;22.44
45701;BMP280;36277;32.852;-116.998;2022-12-18T09:55:38;99958.41;;;22.39
45701;BMP280;36277;32.852;-116.998;2022-12-18T10:00:58;99965.31;;;22.35
45701;BMP280;36277;32.852;-116.998;2022-12-18T10:03:24;99969.75;;;22.36
45701;BMP280;36277;32.852;-116.998;2022-12-18T10:09:19;99973.03;;;22.31
45701;BMP280;36277;32.852;-116.998;2022-12-18T10:14:41;99964.78;;;22.31
45701;BMP280;36277;32.852;-116.998;2022-12-18T10:17:34;99968.56;;;22.30
45701;BMP280;36277;32.852;-116.998;2022-12-18T10:20:18;99966.38;;;22.26
45701;BMP280;36277;32.852;-116.998;2022-12-18T10:23:02;99961.91;;;22.25
45701;BMP280;36277;32.852;-116.998;2022-12-18T10:28:13;99961.91;;;22.25
45701;BMP280;36277;32.852;-116.998;2022-12-18T10:30:41;99956.78;;;22.22
45701;BMP280;36277;32.852;-116.998;2022-12-18T10:33:29;99962.66;;;22.19
45701;BMP280;36277;32.852;-116.998;2022-12-18T10:35:55;99956.31;;;22.18
45701;BMP280;36277;32.852;-116.998;2022-12-18T10:38:25;99953.56;;;22.18
45701;BMP280;36277;32.852;-116.998;2022-12-18T10:41:01;99955.66;;;22.16
45701;BMP280;36277;32.852;-116.998;2022-12-18T10:51:33;99965.50;;;22.11
45701;BMP280;36277;32.852;-116.998;2022-12-18T10:56:35;99963.94;;;22.08
45701;BMP280;36277;32.852;-116.998;2022-12-18T10:59:05;99967.94;;;22.06
45701;BMP280;36277;32.852;-116.998;2022-12-18T11:04:27;99952.28;;;22.06
45701;BMP280;36277;32.852;-116.998;2022-12-18T11:09:22;99956.28;;;22.04
45701;BMP280;36277;32.852;-116.998;2022-12-18T11:11:53;99957.31;;;22.03
45701;BMP280;36277;32.852;-116.998;2022-12-18T11:14:32;99950.09;;;22.02
45701;BMP280;36277;32.852;-116.998;2022-12-18T11:17:00;99952.19;;;22.00
45701;BMP280;36277;32.852;-116.998;2022-12-18T11:19:36;99947.91;;;21.97
45701;BMP280;36277;32.852;-116.998;2022-12-18T11:22:19;99948.75;;;21.98
45701;BMP280;36277;32.852;-116.998;2022-12-18T11:25:02;99939.84;;;21.96
45701;BMP280;36277;32.852;-116.998;2022-12-18T11:27:31;99948.44;;;21.93
45701;BMP280;36277;32.852;-116.998;2022-12-18T11:30:23;99946.94;;;21.90
45701;BMP280;36277;32.852;-116.998;2022-12-18T11:33:06;99931.50;;;21.89
45701;BMP280;36277;32.852;-116.998;2022-12-18T11:36:00;99938.22;;;21.87
45701;BMP280;36277;32.852;-116.998;2022-12-18T11:38:41;99925.53;;;21.86
45701;BMP280;36277;32.852;-116.998;2022-12-18T11:41:39;99930.34;;;21.84
45701;BMP280;36277;32.852;-116.998;2022-12-18T11:44:43;99926.72;;;21.84
45701;BMP280;36277;32.852;-116.998;2022-12-18T11:47:27;99926.91;;;21.82
45701;BMP280;36277;32.852;-116.998;2022-12-18T11:49:56;99919.72;;;21.81
45701;BMP280;36277;32.852;-116.998;2022-12-18T11:52:40;99924.19;;;21.82
45701;BMP280;36277;32.852;-116.998;2022-12-18T11:58:17;99924.72;;;21.78
45701;BMP280;36277;32.852;-116.998;2022-12-18T12:00:59;99920.63;;;21.74
45701;BMP280;36277;32.852;-116.998;2022-12-18T12:17:20;99929.59;;;21.68
45701;BMP280;36277;32.852;-116.998;2022-12-18T12:22:30;99929.59;;;21.68
45701;BMP280;36277;32.852;-116.998;2022-12-18T12:25:07;99927.91;;;21.67
45701;BMP280;36277;32.852;-116.998;2022-12-18T12:28:12;99940.13;;;21.64
45701;BMP280;36277;32.852;-116.998;2022-12-18T12:33:32;99932.03;;;21.63
45701;BMP280;36277;32.852;-116.998;2022-12-18T12:38:46;99930.84;;;21.57
45701;BMP280;36277;32.852;-116.998;2022-12-18T12:41:19;99927.22;;;21.57
45701;BMP280;36277;32.852;-116.998;2022-12-18T12:44:09;99932.25;;;21.53
45701;BMP280;36277;32.852;-116.998;2022-12-18T12:46:41;99930.53;;;21.52
45701;BMP280;36277;32.852;-116.998;2022-12-18T12:49:18;99925.91;;;21.53
45701;BMP280;36277;32.852;-116.998;2022-12-18T12:52:10;99929.19;;;21.48
45701;BMP280;36277;32.852;-116.998;2022-12-18T12:54:38;99936.59;;;21.48
45701;BMP280;36277;32.852;-116.998;2022-12-18T13:00:00;99938.47;;;21.47
45701;BMP280;36277;32.852;-116.998;2022-12-18T13:02:50;99938.81;;;21.44
45701;BMP280;36277;32.852;-116.998;2022-12-18T13:05:25;99943.28;;;21.45
45701;BMP280;36277;32.852;-116.998;2022-12-18T13:08:02;99936.06;;;21.44
45701;BMP280;36277;32.852;-116.998;2022-12-18T13:10:36;99938.16;;;21.42
45701;BMP280;36277;32.852;-116.998;2022-12-18T13:13:16;99945.53;;;21.42
45701;BMP280;36277;32.852;-116.998;2022-12-18T13:15:45;99945.22;;;21.37
45701;BMP280;36277;32.852;-116.998;2022-12-18T13:18:17;99949.69;;;21.38
45701;BMP280;36277;32.852;-116.998;2022-12-18T13:21:17;99947.97;;;21.37
45701;BMP280;36277;32.852;-116.998;2022-12-18T13:23:40;99944.75;;;21.33
45701;BMP280;36277;32.852;-116.998;2022-12-18T13:31:57;99940.63;;;21.29
45701;BMP280;36277;32.852;-116.998;2022-12-18T13:34:23;99946.69;;;21.25
45701;BMP280;36277;32.852;-116.998;2022-12-18T13:36:53;99947.50;;;21.25
45701;BMP280;36277;32.852;-116.998;2022-12-18T13:41:52;99951.50;;;21.23
45701;BMP280;36277;32.852;-116.998;2022-12-18T13:44:35;99951.84;;;21.20
45701;BMP280;36277;32.852;-116.998;2022-12-18T13:47:26;99959.94;;;21.13
45701;BMP280;36277;32.852;-116.998;2022-12-18T13:49:54;99969.03;;;21.14
45701;BMP280;36277;32.852;-116.998;2022-12-18T13:52:25;99969.88;;;21.14
45701;BMP280;36277;32.852;-116.998;2022-12-18T13:54:54;99976.41;;;21.13
45701;BMP280;36277;32.852;-116.998;2022-12-18T13:57:30;99971.09;;;21.12
45701;BMP280;36277;32.852;-116.998;2022-12-18T13:59:58;99978.81;;;21.08
45701;BMP280;36277;32.852;-116.998;2022-12-18T14:02:26;99982.41;;;21.09
45701;BMP280;36277;32.852;-116.998;2022-12-18T14:04:54;99980.69;;;21.08
45701;BMP280;36277;32.852;-116.998;2022-12-18T14:07:26;99983.44;;;21.08
45701;BMP280;36277;32.852;-116.998;2022-12-18T14:09:55;99992.91;;;21.05
45701;BMP280;36277;32.852;-116.998;2022-12-18T14:12:36;99987.41;;;21.05
45701;BMP280;36277;32.852;-116.998;2022-12-18T14:18:01;99986.25;;;21.00
45701;BMP280;36277;32.852;-116.998;2022-12-18T14:20:31;99986.41;;;20.98
45701;BMP280;36277;32.852;-116.998;2022-12-18T14:22:58;99989.34;;;20.97
45701;BMP280;36277;32.852;-116.998;2022-12-18T14:25:27;99994.81;;;20.97
45701;BMP280;36277;32.852;-116.998;2022-12-18T14:30:43;99994.31;;;20.93
45701;BMP280;36277;32.852;-116.998;2022-12-18T14:33:18;99991.41;;;20.95
45701;BMP280;36277;32.852;-116.998;2022-12-18T14:35:57;99991.19;;;21.04
45701;BMP280;36277;32.852;-116.998;2022-12-18T14:38:35;99990.63;;;21.17
45701;BMP280;36277;32.852;-116.998;2022-12-18T14:41:13;99997.94;;;21.24
45701;BMP280;36277;32.852;-116.998;2022-12-18T14:43:45;100004.44;;;21.31
45701;BMP280;36277;32.852;-116.998;2022-12-18T14:46:37;99999.09;;;21.38
45701;BMP280;36277;32.852;-116.998;2022-12-18T14:51:54;99991.44;;;21.56
45701;BMP280;36277;32.852;-116.998;2022-12-18T14:54:22;100005.00;;;21.65
45701;BMP280;36277;32.852;-116.998;2022-12-18T14:56:55;100004.56;;;21.76
45701;BMP280;36277;32.852;-116.998;2022-12-18T14:59:25;99999.03;;;21.84
45701;BMP280;36277;32.852;-116.998;2022-12-18T15:02:03;100001.16;;;21.96
45701;BMP280;36277;32.852;-116.998;2022-12-18T15:04:38;100005.69;;;22.12
45701;BMP280;36277;32.852;-116.998;2022-12-18T15:07:20;100004.84;;;22.34
45701;BMP280;36277;32.852;-116.998;2022-12-18T15:10:19;100006.38;;;22.51
45701;BMP280;36277;32.852;-116.998;2022-12-18T15:13:05;100004.59;;;22.58
45701;BMP280;36277;32.852;-116.998;2022-12-18T15:18:12;100007.97;;;22.68
45701;BMP280;36277;32.852;-116.998;2022-12-18T15:20:44;100027.00;;;22.69
45701;BMP280;36277;32.852;-116.998;2022-12-18T15:26:13;100022.56;;;22.68
45701;BMP280;36277;32.852;-116.998;2022-12-18T15:36:18;100042.59;;;22.77
45701;BMP280;36277;32.852;-116.998;2022-12-18T15:38:51;100048.19;;;22.83
45701;BMP280;36277;32.852;-116.998;2022-12-18T15:41:20;100050.75;;;22.85
45701;BMP280;36277;32.852;-116.998;2022-12-18T15:43:48;100045.94;;;22.87